createdAt,value
2022-08-23T00:01:32.162Z,20.80
2022-08-23T00:04:02.940Z,20.80
2022-08-23T00:06:32.660Z,20.80
2022-08-23T00:09:00.900Z,20.80
2022-08-23T00:11:31.549Z,20.80
2022-08-23T00:14:04.288Z,20.80
2022-08-23T00:16:32.463Z,20.70
2022-08-23T00:19:00.417Z,20.70
2022-08-23T00:21:29.174Z,20.60
2022-08-23T00:23:57.876Z,20.60
2022-08-23T00:26:26.136Z,20.60
2022-08-23T00:28:54.162Z,20.60
2022-08-23T00:31:23.691Z,20.50
2022-08-23T00:33:51.796Z,20.40
2022-08-23T00:36:19.917Z,20.40
2022-08-23T00:38:48.018Z,20.30
2022-08-23T00:41:16.190Z,20.40
2022-08-23T00:44:01.831Z,20.30
2022-08-23T00:47:00.223Z,20.20
2022-08-23T00:49:29.599Z,20.20
2022-08-23T00:52:01.200Z,20.20
2022-08-23T00:54:31.375Z,20.10
2022-08-23T00:57:02.607Z,20.10
2022-08-23T00:59:30.999Z,20.10
2022-08-23T01:02:01.718Z,20.10
2022-08-23T01:04:35.167Z,20.00
2022-08-23T01:07:10.270Z,20.00
2022-08-23T01:09:40.596Z,19.90
2022-08-23T01:12:15.088Z,19.90
2022-08-23T01:14:52.491Z,19.80
2022-08-23T01:17:25.387Z,19.80
2022-08-23T01:19:56.604Z,19.70
2022-08-23T01:22:29.809Z,19.70
2022-08-23T01:25:07.655Z,19.60
2022-08-23T01:27:37.164Z,19.50
2022-08-23T01:30:07.199Z,19.40
2022-08-23T01:32:38.605Z,19.40
2022-08-23T01:35:07.507Z,19.30
2022-08-23T01:37:35.810Z,19.30
2022-08-23T01:40:07.293Z,19.10
2022-08-23T01:42:35.375Z,19.10
2022-08-23T01:45:03.691Z,19.00
2022-08-23T01:47:31.930Z,19.00
2022-08-23T01:50:00.603Z,18.90
2022-08-23T01:52:28.759Z,18.90
2022-08-23T01:54:57.280Z,18.90
2022-08-23T01:57:26.846Z,18.80
2022-08-23T01:59:55.187Z,18.80
2022-08-23T02:02:23.458Z,18.80
2022-08-23T02:04:51.563Z,18.70
2022-08-23T02:07:19.978Z,18.70
2022-08-23T02:09:49.317Z,18.60
2022-08-23T02:12:17.326Z,18.50
2022-08-23T02:14:46.660Z,18.50
2022-08-23T02:17:16.088Z,18.40
2022-08-23T02:19:44.782Z,18.40
2022-08-23T02:22:13.414Z,18.30
2022-08-23T02:24:44.511Z,18.30
2022-08-23T02:27:15.439Z,18.20
2022-08-23T02:29:47.748Z,18.20
2022-08-23T02:32:19.307Z,18.10
2022-08-23T02:34:59.880Z,18.10
2022-08-23T02:37:34.205Z,18.00
2022-08-23T02:40:02.875Z,18.00
2022-08-23T02:42:31.219Z,17.90
2022-08-23T02:45:00.705Z,17.90
2022-08-23T02:47:29.230Z,17.90
2022-08-23T02:49:57.397Z,17.90
2022-08-23T02:52:25.647Z,17.80
2022-08-23T02:54:53.670Z,17.80
2022-08-23T02:57:26.678Z,17.80
2022-08-23T02:59:55.770Z,17.70
2022-08-23T03:02:25.229Z,17.60
2022-08-23T03:04:53.348Z,17.50
2022-08-23T03:07:21.428Z,17.50
2022-08-23T03:09:49.820Z,17.40
2022-08-23T03:12:18.059Z,17.40
2022-08-23T03:14:46.457Z,17.40
2022-08-23T03:17:14.664Z,17.40
2022-08-23T03:19:44.246Z,17.40
2022-08-23T03:22:12.206Z,17.30
2022-08-23T03:24:40.253Z,17.30
2022-08-23T03:27:08.332Z,17.30
2022-08-23T03:29:36.445Z,17.20
2022-08-23T03:32:06.332Z,17.20
2022-08-23T03:34:34.904Z,17.10
2022-08-23T03:37:04.861Z,17.10
2022-08-23T03:39:32.866Z,17.10
2022-08-23T03:42:00.944Z,17.10
2022-08-23T03:44:28.993Z,17.00
2022-08-23T03:46:57.559Z,17.00
2022-08-23T03:49:26.240Z,17.00
2022-08-23T03:52:08.913Z,16.90
2022-08-23T03:54:52.795Z,16.90
2022-08-23T03:57:30.478Z,16.80
2022-08-23T04:00:00.105Z,16.80
2022-08-23T04:02:34.907Z,16.70
2022-08-23T04:05:11.068Z,16.60
2022-08-23T04:07:41.018Z,16.60
2022-08-23T04:10:18.530Z,16.60
2022-08-23T04:12:55.945Z,16.50
2022-08-23T04:15:24.822Z,16.50
2022-08-23T04:17:55.325Z,16.40
2022-08-23T04:20:24.017Z,16.40
2022-08-23T04:22:59.962Z,16.30
2022-08-23T04:25:35.988Z,16.30
2022-08-23T04:28:07.883Z,16.30
2022-08-23T04:30:46.952Z,16.20
2022-08-23T04:33:18.223Z,16.20
2022-08-23T04:35:49.780Z,16.20
2022-08-23T04:38:24.876Z,16.20
2022-08-23T04:41:20.250Z,16.20
2022-08-23T04:43:49.057Z,16.10
2022-08-23T04:46:19.867Z,16.20
2022-08-23T04:48:48.674Z,16.20
2022-08-23T04:51:17.868Z,16.10
2022-08-23T04:53:50.218Z,16.10
2022-08-23T04:56:23.671Z,16.00
2022-08-23T04:58:51.820Z,16.00
2022-08-23T05:01:19.926Z,16.00
2022-08-23T05:03:48.641Z,16.00
2022-08-23T05:06:17.555Z,16.00
2022-08-23T05:08:48.673Z,16.00
2022-08-23T05:11:20.568Z,16.00
2022-08-23T05:13:50.351Z,16.00
2022-08-23T05:16:18.787Z,16.00
2022-08-23T05:18:47.618Z,16.10
2022-08-23T05:21:17.901Z,16.10
2022-08-23T05:23:50.986Z,16.10
2022-08-23T05:26:24.731Z,16.20
2022-08-23T05:28:52.872Z,16.30
2022-08-23T05:31:23.027Z,16.30
2022-08-23T05:33:52.327Z,16.40
2022-08-23T05:36:21.510Z,16.50
2022-08-23T05:38:50.897Z,16.60
2022-08-23T05:41:20.901Z,16.70
2022-08-23T05:43:50.949Z,16.80
2022-08-23T05:46:28.344Z,17.00
2022-08-23T05:48:59.462Z,17.10
2022-08-23T05:51:30.732Z,17.20
2022-08-23T05:54:01.848Z,17.40
2022-08-23T05:56:32.373Z,17.60
2022-08-23T05:59:06.099Z,17.80
2022-08-23T06:01:40.977Z,17.90
2022-08-23T06:04:12.800Z,18.10
2022-08-23T06:06:42.297Z,18.30
2022-08-23T06:09:19.559Z,18.50
2022-08-23T06:11:49.282Z,18.70
2022-08-23T06:14:22.978Z,18.90
2022-08-23T06:16:55.863Z,19.00
2022-08-23T06:19:25.244Z,19.10
2022-08-23T06:21:54.170Z,19.20
2022-08-23T06:24:23.288Z,19.30
2022-08-23T06:26:51.327Z,19.40
2022-08-23T06:29:22.103Z,19.50
2022-08-23T06:31:52.238Z,19.70
2022-08-23T06:34:23.541Z,19.70
2022-08-23T06:36:55.851Z,19.90
2022-08-23T06:39:26.118Z,20.00
2022-08-23T06:41:58.322Z,20.20
2022-08-23T06:44:29.224Z,20.30
2022-08-23T06:46:57.569Z,20.50
2022-08-23T06:49:27.706Z,20.60
2022-08-23T06:51:59.901Z,20.70
2022-08-23T06:54:31.388Z,20.80
2022-08-23T06:57:00.583Z,20.90
2022-08-23T06:59:31.226Z,21.00
2022-08-23T07:02:01.150Z,21.10
2022-08-23T07:04:30.729Z,21.20
2022-08-23T07:07:01.558Z,21.40
2022-08-23T07:09:30.643Z,21.50
2022-08-23T07:11:59.417Z,21.60
2022-08-23T07:14:29.509Z,21.60
2022-08-23T07:17:01.323Z,21.70
2022-08-23T07:19:31.644Z,21.70
2022-08-23T07:22:00.288Z,21.90
2022-08-23T07:24:33.335Z,22.00
2022-08-23T07:27:06.553Z,22.00
2022-08-23T07:29:37.330Z,22.10
2022-08-23T07:32:05.950Z,22.20
2022-08-23T07:34:34.327Z,22.20
2022-08-23T07:37:02.705Z,22.30
2022-08-23T07:39:31.810Z,22.40
2022-08-23T07:42:01.194Z,22.50
2022-08-23T07:44:36.139Z,22.50
2022-08-23T07:47:06.392Z,22.60
2022-08-23T07:49:34.661Z,22.70
2022-08-23T07:52:03.228Z,22.90
2022-08-23T07:54:31.563Z,22.90
2022-08-23T07:57:02.562Z,22.90
2022-08-23T07:59:34.540Z,22.90
2022-08-23T08:02:05.818Z,23.00
2022-08-23T08:04:43.658Z,23.10
2022-08-23T08:07:20.801Z,23.10
2022-08-23T08:09:50.311Z,23.20
2022-08-23T08:12:24.549Z,23.40
2022-08-23T08:14:56.436Z,23.50
2022-08-23T08:17:28.858Z,23.50
2022-08-23T08:19:57.590Z,23.70
2022-08-23T08:22:26.137Z,23.70
2022-08-23T08:24:55.636Z,23.40
2022-08-23T08:27:26.860Z,23.80
2022-08-23T08:29:55.549Z,24.00
2022-08-23T08:32:25.146Z,24.10
2022-08-23T08:34:54.150Z,24.20
2022-08-23T08:37:22.376Z,24.30
2022-08-23T08:39:52.463Z,24.30
2022-08-23T08:42:43.320Z,24.30
2022-08-23T08:45:18.067Z,24.40
2022-08-23T08:47:54.544Z,24.70
2022-08-23T08:50:28.128Z,24.80
2022-08-23T08:53:03.341Z,24.90
2022-08-23T08:55:35.343Z,25.00
2022-08-23T08:58:07.983Z,25.10
2022-08-23T09:00:41.335Z,25.20
2022-08-23T09:03:20.671Z,25.20
2022-08-23T09:05:56.436Z,25.30
2022-08-23T09:08:40.705Z,25.40
2022-08-23T09:11:17.175Z,25.40
2022-08-23T09:14:18.262Z,25.30
2022-08-23T09:16:52.601Z,25.30
2022-08-23T09:19:25.172Z,25.50
2022-08-23T09:22:01.801Z,25.60
2022-08-23T09:24:35.982Z,25.70
2022-08-23T09:27:09.529Z,25.90
2022-08-23T09:29:42.417Z,26.00
2022-08-23T09:32:29.176Z,26.10
2022-08-23T09:35:09.529Z,26.20
2022-08-23T09:37:54.357Z,26.40
2022-08-23T09:40:32.463Z,26.60
2022-08-23T09:43:12.761Z,26.60
2022-08-23T09:45:56.719Z,26.60
2022-08-23T09:48:38.815Z,26.70
2022-08-23T09:51:20.404Z,26.90
2022-08-23T09:53:51.659Z,26.90
2022-08-23T09:56:26.437Z,27.20
2022-08-23T09:58:54.688Z,27.10
2022-08-23T10:01:26.054Z,27.30
2022-08-23T10:04:09.599Z,27.40
2022-08-23T10:06:41.809Z,27.40
2022-08-23T10:09:22.376Z,27.40
2022-08-23T10:11:50.741Z,27.60
2022-08-23T10:14:24.298Z,27.60
2022-08-23T10:17:05.592Z,27.60
2022-08-23T10:19:42.885Z,27.70
2022-08-23T10:22:18.837Z,27.80
2022-08-23T10:24:49.478Z,28.10
2022-08-23T10:27:45.854Z,28.30
2022-08-23T10:30:17.926Z,28.30
2022-08-23T10:32:54.508Z,28.40
2022-08-23T10:35:40.406Z,28.60
2022-08-23T10:38:38.795Z,28.70
2022-08-23T10:41:28.171Z,28.60
2022-08-23T10:44:06.059Z,28.70
2022-08-23T10:46:42.818Z,28.70
2022-08-23T10:49:14.159Z,28.70
2022-08-23T10:51:46.269Z,28.70
2022-08-23T10:54:18.610Z,28.80
2022-08-23T10:56:48.630Z,28.90
2022-08-23T10:59:23.896Z,28.90
2022-08-23T11:01:57.385Z,28.90
2022-08-23T11:04:30.968Z,29.10
2022-08-23T11:07:01.324Z,29.30
2022-08-23T11:09:54.518Z,29.30
2022-08-23T11:12:27.325Z,29.40
2022-08-23T11:15:14.770Z,29.50
2022-08-23T11:17:56.100Z,29.70
2022-08-23T11:20:57.419Z,29.80
2022-08-23T11:23:55.922Z,29.80
2022-08-23T11:27:07.903Z,29.80
2022-08-23T11:29:52.554Z,30.00
2022-08-23T11:32:43.318Z,29.80
2022-08-23T11:35:43.185Z,29.90
2022-08-23T11:38:13.645Z,30.00
2022-08-23T11:40:59.927Z,30.30
2022-08-23T11:43:37.893Z,30.40
2022-08-23T11:46:34.827Z,30.50
2022-08-23T11:49:32.093Z,30.50
2022-08-23T11:52:13.036Z,30.50
2022-08-23T11:55:08.330Z,30.60
2022-08-23T11:57:52.722Z,30.60
2022-08-23T12:00:29.064Z,30.50
2022-08-23T12:03:05.890Z,30.70
2022-08-23T12:06:12.640Z,30.90
2022-08-23T12:09:02.143Z,31.10
2022-08-23T12:12:01.194Z,31.00
2022-08-23T12:14:49.581Z,31.00
2022-08-23T12:17:54.404Z,31.10
2022-08-23T12:20:32.466Z,31.20
2022-08-23T12:23:17.226Z,31.40
2022-08-23T12:25:46.549Z,31.50
2022-08-23T12:28:38.106Z,31.50
2022-08-23T12:31:17.929Z,31.30
2022-08-23T12:34:00.440Z,31.50
2022-08-23T12:36:37.250Z,31.50
2022-08-23T12:39:08.943Z,31.50
2022-08-23T12:41:54.069Z,31.50
2022-08-23T12:44:24.375Z,31.80
2022-08-23T12:46:53.299Z,32.10
2022-08-23T12:49:30.063Z,32.20
2022-08-23T12:52:01.181Z,32.20
2022-08-23T12:54:40.317Z,32.20
2022-08-23T12:57:13.087Z,32.10
2022-08-23T12:59:47.363Z,32.20
2022-08-23T13:02:21.830Z,32.00
2022-08-23T13:04:49.766Z,32.30
2022-08-23T13:07:23.070Z,32.60
2022-08-23T13:09:55.446Z,32.70
2022-08-23T13:12:24.641Z,33.00
2022-08-23T13:14:54.652Z,33.10
2022-08-23T13:17:32.915Z,32.90
2022-08-23T13:20:21.763Z,33.10
2022-08-23T13:22:58.948Z,33.20
2022-08-23T13:25:32.192Z,33.00
2022-08-23T13:28:02.716Z,33.20
2022-08-23T13:30:32.649Z,33.10
2022-08-23T13:33:19.280Z,33.10
2022-08-23T13:35:49.895Z,33.50
2022-08-23T13:38:24.625Z,33.60
2022-08-23T13:41:01.196Z,33.90
2022-08-23T13:43:33.612Z,33.90
2022-08-23T13:46:10.493Z,34.00
2022-08-23T13:48:45.762Z,33.60
2022-08-23T13:51:30.021Z,32.90
2022-08-23T13:53:59.881Z,32.60
2022-08-23T13:56:30.701Z,33.00
2022-08-23T13:59:01.751Z,33.50
2022-08-23T14:01:31.217Z,34.10
2022-08-23T14:03:59.282Z,34.90
2022-08-23T14:06:27.381Z,35.50
2022-08-23T14:08:55.362Z,36.10
2022-08-23T14:11:23.470Z,36.10
2022-08-23T14:13:53.187Z,37.00
2022-08-23T14:16:36.610Z,37.40
2022-08-23T14:19:19.208Z,37.70
2022-08-23T14:21:57.420Z,37.20
2022-08-23T14:24:26.917Z,37.70
2022-08-23T14:26:56.460Z,37.70
2022-08-23T14:29:28.204Z,38.20
2022-08-23T14:31:57.576Z,38.10
2022-08-23T14:34:26.464Z,37.60
2022-08-23T14:39:43.693Z,37.90
2022-08-23T14:42:13.365Z,38.00
2022-08-23T14:44:44.086Z,37.80
2022-08-23T14:47:12.006Z,38.40
2022-08-23T14:49:40.037Z,38.80
2022-08-23T14:52:08.326Z,39.00
2022-08-23T14:54:36.423Z,39.00
2022-08-23T14:57:04.945Z,38.80
2022-08-23T14:59:32.986Z,38.80
2022-08-23T15:02:02.617Z,38.70
2022-08-23T15:04:34.314Z,38.80
2022-08-23T15:07:19.799Z,38.80
2022-08-23T15:09:48.722Z,38.90
2022-08-23T15:15:07.494Z,38.60
2022-08-23T15:17:39.005Z,39.00
2022-08-23T15:20:07.867Z,38.70
2022-08-23T15:22:44.478Z,39.10
2022-08-23T15:25:14.092Z,39.30
2022-08-23T15:27:42.772Z,38.80
2022-08-23T15:30:12.795Z,39.20
2022-08-23T15:32:52.318Z,38.40
2022-08-23T15:35:25.826Z,38.10
2022-08-23T15:37:55.899Z,38.00
2022-08-23T15:40:25.705Z,38.10
2022-08-23T15:42:54.074Z,38.70
2022-08-23T15:45:22.123Z,39.40
2022-08-23T15:47:54.040Z,39.10
2022-08-23T15:50:24.299Z,38.80
2022-08-23T15:52:52.808Z,38.40
2022-08-23T15:55:21.302Z,38.30
2022-08-23T15:57:52.913Z,38.60
2022-08-23T16:00:24.219Z,39.30
2022-08-23T16:03:19.068Z,39.40
2022-08-23T16:05:45.410Z,39.40
2022-08-23T16:08:19.864Z,39.00
2022-08-23T16:10:48.028Z,38.20
2022-08-23T16:13:16.172Z,38.80
2022-08-23T16:15:44.848Z,39.20
2022-08-23T16:18:14.754Z,39.30
2022-08-23T16:20:42.948Z,39.70
2022-08-23T16:23:11.469Z,39.00
2022-08-23T16:25:39.779Z,39.00
2022-08-23T16:28:08.609Z,39.10
2022-08-23T16:30:37.356Z,39.30
2022-08-23T16:33:05.860Z,39.10
2022-08-23T16:35:35.345Z,38.60
2022-08-23T16:38:03.333Z,38.80
2022-08-23T16:40:31.312Z,39.10
2022-08-23T16:42:59.383Z,39.00
2022-08-23T16:45:27.825Z,38.20
2022-08-23T16:47:56.008Z,37.60
2022-08-23T16:50:24.003Z,36.70
2022-08-23T16:52:53.433Z,35.90
2022-08-23T16:55:21.459Z,35.40
2022-08-23T16:57:49.441Z,34.80
2022-08-23T17:00:18.250Z,34.50
2022-08-23T17:02:47.036Z,34.00
2022-08-23T17:05:18.325Z,33.60
2022-08-23T17:07:47.654Z,33.50
2022-08-23T17:10:18.673Z,33.20
2022-08-23T17:12:50.250Z,32.70
2022-08-23T17:15:22.267Z,32.60
2022-08-23T17:17:52.492Z,32.60
2022-08-23T17:20:23.886Z,32.50
2022-08-23T17:22:52.624Z,32.30
2022-08-23T17:25:22.682Z,31.80
2022-08-23T17:27:53.226Z,31.80
2022-08-23T17:30:24.344Z,31.80
2022-08-23T17:32:53.215Z,31.80
2022-08-23T17:35:24.846Z,31.60
2022-08-23T17:37:53.729Z,31.50
2022-08-23T17:40:28.378Z,31.40
2022-08-23T17:42:56.596Z,31.30
2022-08-23T17:45:25.125Z,31.20
2022-08-23T17:47:53.256Z,31.10
2022-08-23T17:50:22.279Z,30.90
2022-08-23T17:52:51.171Z,30.70
2022-08-23T17:55:19.714Z,30.60
2022-08-23T17:57:51.701Z,30.50
2022-08-23T18:00:23.453Z,30.30
2022-08-23T18:02:51.628Z,30.10
2022-08-23T18:05:20.817Z,29.90
2022-08-23T18:07:49.041Z,29.80
2022-08-23T18:10:17.584Z,29.60
2022-08-23T18:12:45.654Z,29.50
2022-08-23T18:15:15.528Z,29.20
2022-08-23T18:17:43.454Z,29.10
2022-08-23T18:20:13.185Z,28.90
2022-08-23T18:22:41.240Z,28.70
2022-08-23T18:25:11.063Z,28.50
2022-08-23T18:27:56.510Z,28.40
2022-08-23T18:30:26.590Z,28.20
2022-08-23T18:32:55.402Z,27.90
2022-08-23T18:35:25.799Z,27.80
2022-08-23T18:37:54.423Z,27.60
2022-08-23T18:40:22.891Z,27.40
2022-08-23T18:42:51.787Z,27.20
2022-08-23T18:45:20.328Z,27.10
2022-08-23T18:47:52.947Z,27.00
2022-08-23T18:50:21.053Z,26.80
2022-08-23T18:52:49.085Z,26.60
2022-08-23T18:55:20.050Z,26.60
2022-08-23T18:57:48.081Z,26.40
2022-08-23T19:00:16.377Z,26.30
2022-08-23T19:02:44.733Z,26.20
2022-08-23T19:05:14.309Z,26.10
2022-08-23T19:07:42.483Z,25.90
2022-08-23T19:10:11.785Z,25.80
2022-08-23T19:12:39.725Z,25.70
2022-08-23T19:15:20.190Z,25.60
2022-08-23T19:17:48.651Z,25.50
2022-08-23T19:20:19.290Z,25.40
2022-08-23T19:22:47.637Z,25.30
2022-08-23T19:25:15.609Z,25.20
2022-08-23T19:27:43.740Z,25.10
2022-08-23T19:30:13.498Z,25.00
2022-08-23T19:32:46.221Z,24.90
2022-08-23T19:35:14.507Z,24.90
2022-08-23T19:37:43.865Z,24.70
2022-08-23T19:40:14.268Z,24.60
2022-08-23T19:42:42.281Z,24.40
2022-08-23T19:45:11.533Z,24.20
2022-08-23T19:47:40.282Z,24.10
2022-08-23T19:50:10.964Z,24.00
2022-08-23T19:52:39.238Z,24.00
2022-08-23T19:55:11.551Z,23.90
2022-08-23T19:57:39.636Z,23.80
2022-08-23T20:00:15.711Z,23.80
2022-08-23T20:02:46.930Z,23.70
2022-08-23T20:05:15.490Z,23.70
2022-08-23T20:07:43.780Z,23.60
2022-08-23T20:10:14.280Z,23.60
2022-08-23T20:12:42.984Z,23.50
2022-08-23T20:15:12.437Z,23.40
2022-08-23T20:17:41.215Z,23.40
2022-08-23T20:20:11.472Z,23.30
2022-08-23T20:22:57.102Z,23.20
2022-08-23T20:25:26.728Z,23.20
2022-08-23T20:27:54.700Z,23.10
2022-08-23T20:30:22.756Z,23.10
2022-08-23T20:32:50.922Z,23.10
2022-08-23T20:35:18.998Z,23.10
2022-08-23T20:37:47.369Z,23.10
2022-08-23T20:40:16.541Z,23.10
2022-08-23T20:42:46.035Z,23.10
2022-08-23T20:45:14.116Z,23.10
2022-08-23T20:47:42.133Z,23.10
2022-08-23T20:50:10.791Z,23.00
2022-08-23T20:52:38.819Z,22.90
2022-08-23T20:55:10.743Z,22.90
2022-08-23T20:57:39.486Z,22.80
2022-08-23T21:00:10.629Z,22.80
2022-08-23T21:02:38.643Z,22.70
2022-08-23T21:05:07.268Z,22.60
2022-08-23T21:07:35.398Z,22.60
2022-08-23T21:10:05.392Z,22.50
2022-08-23T21:12:33.329Z,22.50
2022-08-23T21:15:01.400Z,22.50
2022-08-23T21:17:30.774Z,22.50
2022-08-23T21:19:58.661Z,22.50
2022-08-23T21:22:32.118Z,22.50
2022-08-23T21:25:00.567Z,22.40
2022-08-23T21:27:28.960Z,22.40
2022-08-23T21:29:56.937Z,22.40
2022-08-23T21:32:25.211Z,22.30
2022-08-23T21:34:54.830Z,22.30
2022-08-23T21:37:22.989Z,22.20
2022-08-23T21:39:51.443Z,22.20
2022-08-23T21:42:23.655Z,22.10
2022-08-23T21:44:53.650Z,22.10
2022-08-23T21:47:21.808Z,22.00
2022-08-23T21:49:49.856Z,21.90
2022-08-23T21:52:19.149Z,21.80
2022-08-23T21:54:51.243Z,21.80
2022-08-23T21:57:19.293Z,21.70
2022-08-23T21:59:47.675Z,21.70
2022-08-23T22:02:15.743Z,21.60
2022-08-23T22:04:44.007Z,21.50
2022-08-23T22:07:11.949Z,21.50
2022-08-23T22:09:41.375Z,21.40
2022-08-23T22:12:09.765Z,21.40
2022-08-23T22:14:37.735Z,21.30
2022-08-23T22:17:06.448Z,21.30
2022-08-23T22:19:34.461Z,21.20
2022-08-23T22:22:02.884Z,21.20
2022-08-23T22:24:31.519Z,21.10
2022-08-23T22:27:00.918Z,21.10
2022-08-23T22:29:28.998Z,21.00
2022-08-23T22:31:57.031Z,21.00
2022-08-23T22:34:25.368Z,20.90
2022-08-23T22:36:55.510Z,20.80
2022-08-23T22:39:23.867Z,20.70
2022-08-23T22:41:51.906Z,20.70
2022-08-23T22:44:26.789Z,20.60
2022-08-23T22:46:55.186Z,20.50
2022-08-23T22:49:23.155Z,20.50
2022-08-23T22:51:55.200Z,20.50
2022-08-23T22:54:24.986Z,20.40
2022-08-23T22:56:54.336Z,20.40
2022-08-23T22:59:27.657Z,20.30
2022-08-23T23:01:58.854Z,20.30
2022-08-23T23:04:29.442Z,20.30
2022-08-23T23:06:57.996Z,20.20
2022-08-23T23:09:26.868Z,20.10
2022-08-23T23:11:56.189Z,20.10
2022-08-23T23:14:25.641Z,20.10
2022-08-23T23:16:54.190Z,20.00
2022-08-23T23:19:51.503Z,20.00
2022-08-23T23:22:19.463Z,19.90
2022-08-23T23:24:47.425Z,19.90
2022-08-23T23:27:15.432Z,19.90
2022-08-23T23:29:44.720Z,19.80
2022-08-23T23:32:12.705Z,19.80
2022-08-23T23:34:40.668Z,19.80
2022-08-23T23:37:08.653Z,19.70
2022-08-23T23:39:36.600Z,19.70
2022-08-23T23:42:05.326Z,19.60
2022-08-23T23:44:33.355Z,19.60
2022-08-23T23:47:03.154Z,19.50
2022-08-23T23:49:33.521Z,19.50
2022-08-23T23:52:02.970Z,19.40
2022-08-23T23:54:31.509Z,19.40
2022-08-23T23:56:59.434Z,19.30
2022-08-23T23:59:27.743Z,19.30
